Airfield :
LOGIN :

Register | Disclaimer

   EN    FR    IT 

 










Legend :    VFR   Marginal VFR   IFR   Intensive IFR   Very Intensive IFR
Visi :
Ceiling :
>= 8 km
>= 3000ft
5 to 8 km
1000 to 3000 ft
1500m to 5 km
500 to 1000 ft
800 to 1500m
200 to 500 ft
< 800m
< 200 ft
Symbols :   Thunderstorms  Fog  Heavy snow  Heavy precipitations  Wind > 20 kt
SIGMETs :     Misc.  Thunderstorms  Icing  Turbulence  Mountain Waves  Volcanic Ashes






- Airport Elevation : 1966 ft
- IATA code : SGE


EDGS - Siegerland

CURRENT METAR :
  • 041620Z 11008KT 090V160 CAVOK 10/M01 Q1023

EXPIRED METARs :
  • 041550Z 13007KT 100V180 CAVOK 10/M02 Q1023
  • 041520Z 13005KT 020V170 CAVOK 10/M02 Q1023
  • 041450Z 13005KT 040V160 CAVOK 10/M02 Q1023
  • 041420Z 17006KT 120V270 CAVOK 10/M02 Q1023
  • 041350Z 12005KT 060V200 CAVOK 10/M02 Q1023
  • 041320Z VRB05KT CAVOK 10/M03 Q1023

TAF TAF EDGS
Valid from the 04 at 15:00 until the 05 at 00:00 UTC


041400Z 0415/0424 12007KT CAVOK



MET'MAP, your aeronautical weather chart ! - Copyright ORBIFLY December 2007 - Disclaimer

ORBIFLY MET'MAP TEAM :

Programming & Development : Alexandra Zaïnal
Concept & original design : Baudouin d'Aumeries
Assistance for programming : Marc-Olivier Méhu
Technical & hardware support : Manuel Goepfert

Contact : metmap@orbifly.com




SOURCES & CREDITS :

   NOAA